createdAt,value
2022-12-11T00:00:59.411Z,19.70
2022-12-11T00:03:27.635Z,14.02
2022-12-11T00:05:55.594Z,13.25
2022-12-11T00:08:23.464Z,9.75
2022-12-11T00:10:51.287Z,8.73
2022-12-11T00:13:19.274Z,11.43
2022-12-11T00:15:47.269Z,8.35
2022-12-11T00:18:15.288Z,8.77
2022-12-11T00:20:43.301Z,9.30
2022-12-11T00:23:11.306Z,15.57
2022-12-11T00:25:47.445Z,13.93
2022-12-11T00:28:20.084Z,18.90
2022-12-11T00:30:48.322Z,11.73
2022-12-11T00:33:16.622Z,8.35
2022-12-11T00:35:47.058Z,14.07
2022-12-11T00:38:20.843Z,17.63
2022-12-11T00:40:49.434Z,21.95
2022-12-11T00:45:47.554Z,13.07
2022-12-11T00:48:15.512Z,12.82
2022-12-11T00:50:43.330Z,10.60
2022-12-11T00:53:11.251Z,8.20
2022-12-11T00:55:40.692Z,20.15
2022-12-11T00:58:09.851Z,12.73
2022-12-11T01:00:38.504Z,9.65
2022-12-11T01:03:06.920Z,18.13
2022-12-11T01:05:35.592Z,13.40
2022-12-11T01:08:04.240Z,7.40
2022-12-11T01:10:32.781Z,14.52
2022-12-11T01:13:06.568Z,11.73
2022-12-11T01:15:41.589Z,10.13
2022-12-11T01:18:12.022Z,18.23
2022-12-11T01:20:42.748Z,11.15
2022-12-11T01:23:13.407Z,7.97
2022-12-11T01:25:42.496Z,4.53
2022-12-11T01:30:38.436Z,5.55
2022-12-11T01:33:06.679Z,7.35
2022-12-11T01:35:35.320Z,11.18
2022-12-11T01:38:03.380Z,12.60
2022-12-11T01:40:31.295Z,15.15
2022-12-11T01:42:59.309Z,12.13
2022-12-11T01:45:44.924Z,11.07
2022-12-11T01:48:16.249Z,16.25
2022-12-11T01:50:56.648Z,12.25
2022-12-11T01:53:32.596Z,10.63
2022-12-11T01:56:01.398Z,10.50
2022-12-11T01:58:34.307Z,15.90
2022-12-11T02:01:03.326Z,15.32
2022-12-11T02:03:31.338Z,13.45
2022-12-11T02:06:02.750Z,7.72
2022-12-11T02:08:30.740Z,7.10
2022-12-11T02:11:24.203Z,8.30
2022-12-11T02:16:47.124Z,4.05
2022-12-11T02:19:59.423Z,4.82
2022-12-11T02:22:55.737Z,2.13
2022-12-11T02:25:34.503Z,2.50
2022-12-11T02:28:26.225Z,1.40
2022-12-11T02:31:35.744Z,1.42
2022-12-11T02:34:12.397Z,1.75
2022-12-11T02:36:45.381Z,1.75
2022-12-11T02:39:16.048Z,0.77
2022-12-11T02:41:49.178Z,1.15
2022-12-11T02:44:23.588Z,2.42
2022-12-11T02:46:53.282Z,0.90
2022-12-11T02:49:23.053Z,0.90
2022-12-11T02:51:52.886Z,0.68
2022-12-11T02:54:26.020Z,3.90
2022-12-11T02:57:05.034Z,1.83
2022-12-11T03:00:53.742Z,1.15
2022-12-11T03:03:22.363Z,3.58
2022-12-11T03:05:50.238Z,2.63
2022-12-11T03:08:18.882Z,2.30
2022-12-11T03:10:47.131Z,2.28
2022-12-11T03:13:20.220Z,1.58
2022-12-11T03:16:04.158Z,1.10
2022-12-11T03:18:44.603Z,3.25
2022-12-11T03:21:24.641Z,2.72
2022-12-11T03:24:17.122Z,2.22
2022-12-11T03:26:56.842Z,3.33
2022-12-11T03:29:32.221Z,3.03
2022-12-11T03:32:10.192Z,2.88
2022-12-11T03:35:06.962Z,3.17
2022-12-11T03:37:39.059Z,1.90
2022-12-11T03:40:32.322Z,2.05
2022-12-11T03:45:30.755Z,2.20
2022-12-11T03:48:01.201Z,2.05
2022-12-11T03:50:32.418Z,3.03
2022-12-11T03:53:02.032Z,2.45
2022-12-11T03:55:32.619Z,2.38
2022-12-11T03:58:00.929Z,0.88
2022-12-11T04:00:29.757Z,2.10
2022-12-11T04:03:16.661Z,2.08
2022-12-11T04:05:50.788Z,1.70
2022-12-11T04:08:21.125Z,0.90
2022-12-11T04:11:10.390Z,2.08
2022-12-11T04:13:39.653Z,2.03
2022-12-11T04:16:07.913Z,2.13
2022-12-11T04:18:54.775Z,2.67
2022-12-11T04:21:41.072Z,1.27
2022-12-11T04:24:18.132Z,2.65
2022-12-11T04:26:47.506Z,2.10
2022-12-11T04:29:15.429Z,1.73
2022-12-11T04:31:43.417Z,2.53
2022-12-11T04:34:11.649Z,2.67
2022-12-11T04:36:39.786Z,2.20
2022-12-11T04:39:08.014Z,3.63
2022-12-11T04:41:37.362Z,1.80
2022-12-11T04:44:05.987Z,2.67
2022-12-11T04:46:34.570Z,3.20
2022-12-11T04:49:02.660Z,3.85
2022-12-11T04:51:30.522Z,3.58
2022-12-11T04:53:59.624Z,3.60
2022-12-11T04:56:27.564Z,4.30
2022-12-11T04:58:55.415Z,3.00
2022-12-11T05:01:23.743Z,2.92
2022-12-11T05:03:51.991Z,9.07
2022-12-11T05:06:19.909Z,11.45
2022-12-11T05:08:47.859Z,18.55
2022-12-11T05:11:16.593Z,12.32
2022-12-11T05:13:45.092Z,30.95
2022-12-11T05:16:15.838Z,35.08
2022-12-11T05:18:44.001Z,23.90
2022-12-11T05:21:13.335Z,26.80
2022-12-11T05:23:42.873Z,30.85
2022-12-11T05:26:17.264Z,18.48
2022-12-11T05:28:46.373Z,20.15
2022-12-11T05:31:17.549Z,19.15
2022-12-11T05:33:46.712Z,21.85
2022-12-11T05:36:19.559Z,15.38
2022-12-11T05:38:47.853Z,14.90
2022-12-11T05:41:18.085Z,54.75
2022-12-11T05:43:46.356Z,38.75
2022-12-11T05:46:22.570Z,33.47
2022-12-11T05:48:54.442Z,26.58
2022-12-11T05:51:22.926Z,36.75
2022-12-11T05:53:52.507Z,48.72
2022-12-11T05:56:25.263Z,36.45
2022-12-11T05:58:54.174Z,38.45
2022-12-11T06:01:28.266Z,47.53
2022-12-11T06:03:57.780Z,21.27
2022-12-11T06:06:27.452Z,23.45
2022-12-11T06:08:57.207Z,52.97
2022-12-11T06:11:27.243Z,45.38
2022-12-11T06:13:55.969Z,33.67
2022-12-11T06:16:24.864Z,36.80
2022-12-11T06:18:57.001Z,46.70
2022-12-11T06:21:33.666Z,34.65
2022-12-11T06:24:05.981Z,30.95
2022-12-11T06:26:34.078Z,64.88
2022-12-11T06:29:01.897Z,34.30
2022-12-11T06:31:29.924Z,28.90
2022-12-11T06:33:58.126Z,35.70
2022-12-11T06:36:26.063Z,31.73
2022-12-11T06:38:55.726Z,44.25
2022-12-11T06:41:23.840Z,55.80
2022-12-11T06:43:51.847Z,40.75
2022-12-11T06:46:20.691Z,75.07
2022-12-11T06:48:51.699Z,79.10
2022-12-11T06:51:22.624Z,91.93
2022-12-11T06:53:55.288Z,61.70
2022-12-11T06:56:24.738Z,54.17
2022-12-11T06:58:53.831Z,48.67
2022-12-11T07:01:27.248Z,69.70
2022-12-11T07:04:00.622Z,69.55
2022-12-11T07:06:29.533Z,48.25
2022-12-11T07:11:25.388Z,67.53
2022-12-11T07:13:53.351Z,47.38
2022-12-11T07:16:21.782Z,59.05
2022-12-11T07:18:51.583Z,48.88
2022-12-11T07:21:21.027Z,52.10
2022-12-11T07:23:50.193Z,38.95
2022-12-11T07:26:21.248Z,61.08
2022-12-11T07:28:49.390Z,26.02
2022-12-11T07:31:20.450Z,68.63
2022-12-11T07:33:52.769Z,54.40
2022-12-11T07:36:20.887Z,31.98
2022-12-11T07:38:49.079Z,53.67
2022-12-11T07:41:17.900Z,45.28
2022-12-11T07:43:54.592Z,27.88
2022-12-11T07:46:25.431Z,21.25
2022-12-11T07:48:54.142Z,17.13
2022-12-11T07:51:28.202Z,12.13
2022-12-11T07:53:59.254Z,5.68
2022-12-11T07:56:28.383Z,8.18
2022-12-11T07:58:56.316Z,7.95
2022-12-11T08:01:26.869Z,6.63
2022-12-11T08:03:55.843Z,7.13
2022-12-11T08:08:57.979Z,7.50
2022-12-11T08:11:26.897Z,15.75
2022-12-11T08:16:23.404Z,7.75
2022-12-11T08:18:52.049Z,4.82
2022-12-11T08:21:23.843Z,4.30
2022-12-11T08:23:53.674Z,4.93
2022-12-11T08:26:27.829Z,5.03
2022-12-11T08:28:56.696Z,2.97
2022-12-11T08:31:26.067Z,6.05
2022-12-11T08:33:56.192Z,3.03
2022-12-11T08:36:25.326Z,10.23
2022-12-11T08:38:56.383Z,6.10
2022-12-11T08:41:27.792Z,2.80
2022-12-11T08:43:59.020Z,6.63
2022-12-11T08:46:29.807Z,3.05
2022-12-11T08:48:59.271Z,3.28
2022-12-11T08:51:29.434Z,2.35
2022-12-11T08:54:00.137Z,2.83
2022-12-11T08:56:29.184Z,11.40
2022-12-11T08:59:01.259Z,7.85
2022-12-11T09:01:29.725Z,11.85
2022-12-11T09:03:57.877Z,18.45
2022-12-11T09:06:28.938Z,13.20
2022-12-11T09:09:00.054Z,14.32
2022-12-11T09:11:34.064Z,7.18
2022-12-11T09:14:07.675Z,54.88
2022-12-11T09:16:40.722Z,17.77
2022-12-11T09:19:18.038Z,2.40
2022-12-11T09:21:46.473Z,5.30
2022-12-11T09:24:15.837Z,2.55
2022-12-11T09:26:44.198Z,1.40
2022-12-11T09:29:12.674Z,4.13
2022-12-11T09:31:41.353Z,3.40
2022-12-11T09:34:12.942Z,3.00
2022-12-11T09:36:42.547Z,6.03
2022-12-11T09:39:13.092Z,4.65
2022-12-11T09:42:02.225Z,4.50
2022-12-11T09:44:42.608Z,2.70
2022-12-11T09:47:43.053Z,12.02
2022-12-11T09:50:19.781Z,1.92
2022-12-11T09:53:13.692Z,3.03
2022-12-11T09:55:54.163Z,4.60
2022-12-11T09:59:02.014Z,2.88
2022-12-11T10:01:48.053Z,9.38
2022-12-11T10:04:50.295Z,14.63
2022-12-11T10:07:47.597Z,3.45
2022-12-11T10:10:22.061Z,9.10
2022-12-11T10:13:14.306Z,5.03
2022-12-11T10:16:04.791Z,5.72
2022-12-11T10:18:34.248Z,3.90
2022-12-11T10:21:04.480Z,3.05
2022-12-11T10:23:40.864Z,3.95
2022-12-11T10:26:19.115Z,2.67
2022-12-11T10:28:47.319Z,3.25
2022-12-11T10:31:26.930Z,3.85
2022-12-11T10:34:04.103Z,5.05
2022-12-11T10:36:41.784Z,10.43
2022-12-11T10:39:18.909Z,7.20
2022-12-11T10:41:51.585Z,6.82
2022-12-11T10:44:22.009Z,4.57
2022-12-11T10:47:12.581Z,10.63
2022-12-11T10:49:53.706Z,3.65
2022-12-11T10:52:28.128Z,4.00
2022-12-11T10:55:25.288Z,5.18
2022-12-11T10:58:01.247Z,5.70
2022-12-11T11:00:34.606Z,262.20
2022-12-11T11:03:04.482Z,213.90
2022-12-11T11:05:36.200Z,9.77
2022-12-11T11:08:19.996Z,17.23
2022-12-11T11:11:00.740Z,19.65
2022-12-11T11:13:31.256Z,49.30
2022-12-11T11:16:10.340Z,24.00
2022-12-11T11:18:41.221Z,42.53
2022-12-11T11:21:21.479Z,23.38
2022-12-11T11:23:53.669Z,18.40
2022-12-11T11:26:38.227Z,13.85
2022-12-11T11:29:17.379Z,9.15
2022-12-11T11:31:46.025Z,2.60
2022-12-11T11:34:22.593Z,4.18
2022-12-11T11:37:01.314Z,6.03
2022-12-11T11:39:38.214Z,4.22
2022-12-11T11:42:20.689Z,3.42
2022-12-11T11:45:18.525Z,4.55
2022-12-11T11:48:11.083Z,4.75
2022-12-11T11:50:45.451Z,6.85
2022-12-11T11:53:38.384Z,4.82
2022-12-11T11:56:23.213Z,2.85
2022-12-11T11:58:51.811Z,3.42
2022-12-11T12:01:21.540Z,1.98
2022-12-11T12:03:50.944Z,1.63
2022-12-11T12:06:40.000Z,3.75
2022-12-11T12:09:23.125Z,3.55
2022-12-11T12:12:27.540Z,2.65
2022-12-11T12:15:11.292Z,3.25
2022-12-11T12:18:02.969Z,2.97
2022-12-11T12:20:44.500Z,5.82
2022-12-11T12:23:36.907Z,4.63
2022-12-11T12:26:21.628Z,3.53
2022-12-11T12:29:09.853Z,12.48
2022-12-11T12:31:44.479Z,5.07
2022-12-11T12:34:34.852Z,9.80
2022-12-11T12:37:30.638Z,4.90
2022-12-11T12:40:28.359Z,3.60
2022-12-11T12:43:12.220Z,6.28
2022-12-11T12:46:03.255Z,3.90
2022-12-11T12:48:31.466Z,2.83
2022-12-11T12:51:01.676Z,4.90
2022-12-11T12:53:34.767Z,7.18
2022-12-11T12:56:04.836Z,10.43
2022-12-11T12:58:35.712Z,7.82
2022-12-11T13:01:13.820Z,15.73
2022-12-11T13:04:16.776Z,7.65
2022-12-11T13:06:56.624Z,6.47
2022-12-11T13:09:27.261Z,23.15
2022-12-11T13:12:00.069Z,19.60
2022-12-11T13:14:32.176Z,14.70
2022-12-11T13:17:09.048Z,12.88
2022-12-11T13:19:42.353Z,74.28
2022-12-11T13:22:14.597Z,66.07
2022-12-11T13:25:22.282Z,21.10
2022-12-11T13:27:50.448Z,22.02
2022-12-11T13:30:26.912Z,15.63
2022-12-11T13:33:15.925Z,15.15
2022-12-11T13:35:44.173Z,10.75
2022-12-11T13:38:21.317Z,22.27
2022-12-11T13:40:56.029Z,13.32
2022-12-11T13:43:27.675Z,7.47
2022-12-11T13:46:09.834Z,11.27
2022-12-11T13:48:48.783Z,11.13
2022-12-11T13:51:19.197Z,15.77
2022-12-11T13:53:47.256Z,10.48
2022-12-11T13:56:22.933Z,11.48
2022-12-11T13:58:50.881Z,11.52
2022-12-11T14:01:29.511Z,11.25
2022-12-11T14:04:09.993Z,19.27
2022-12-11T14:06:40.066Z,40.45
2022-12-11T14:09:09.784Z,51.55
2022-12-11T14:11:42.599Z,71.00
2022-12-11T14:14:42.753Z,39.97
2022-12-11T14:17:16.160Z,22.70
2022-12-11T14:19:49.033Z,8.45
2022-12-11T14:22:23.144Z,6.32
2022-12-11T14:24:58.030Z,9.63
2022-12-11T14:27:28.194Z,8.43
2022-12-11T14:29:57.415Z,8.07
2022-12-11T14:32:42.363Z,8.75
2022-12-11T14:35:39.196Z,15.35
2022-12-11T14:38:36.046Z,5.55
2022-12-11T14:41:13.307Z,6.22
2022-12-11T14:43:52.162Z,6.90
2022-12-11T14:46:33.090Z,4.55
2022-12-11T14:49:06.897Z,6.47
2022-12-11T14:51:40.140Z,7.88
2022-12-11T14:54:32.947Z,6.65
2022-12-11T14:57:06.539Z,6.75
2022-12-11T14:59:41.903Z,4.20
2022-12-11T15:02:33.133Z,7.15
2022-12-11T15:05:04.463Z,8.77
2022-12-11T15:07:34.408Z,4.65
2022-12-11T15:10:04.289Z,4.78
2022-12-11T15:12:33.106Z,3.88
2022-12-11T15:15:07.254Z,5.10
2022-12-11T15:17:37.757Z,6.30
2022-12-11T15:20:21.017Z,3.55
2022-12-11T15:22:49.628Z,3.13
2022-12-11T15:25:28.234Z,4.50
2022-12-11T15:28:00.105Z,6.07
2022-12-11T15:30:32.126Z,2.78
2022-12-11T15:33:20.139Z,4.40
2022-12-11T15:36:06.361Z,7.57
2022-12-11T15:38:34.737Z,6.97
2022-12-11T15:41:03.938Z,1.10
2022-12-11T15:43:36.571Z,5.60
2022-12-11T15:46:06.998Z,1.75
2022-12-11T15:48:35.433Z,2.75
2022-12-11T15:51:04.231Z,4.65
2022-12-11T15:53:32.694Z,3.95
2022-12-11T15:56:01.767Z,3.58
2022-12-11T15:58:30.866Z,5.85
2022-12-11T16:00:59.531Z,4.10
2022-12-11T16:03:27.928Z,3.72
2022-12-11T16:05:56.353Z,6.25
2022-12-11T16:08:25.231Z,6.45
2022-12-11T16:10:55.322Z,3.38
2022-12-11T16:13:23.731Z,8.45
2022-12-11T16:15:54.754Z,5.15
2022-12-11T16:18:24.848Z,5.97
2022-12-11T16:20:53.263Z,6.25
2022-12-11T16:23:21.775Z,0.75
2022-12-11T16:25:50.838Z,7.20
2022-12-11T16:28:21.531Z,9.60
2022-12-11T16:30:50.088Z,6.57
2022-12-11T16:33:18.792Z,16.95
2022-12-11T16:35:47.770Z,10.23
2022-12-11T16:38:16.176Z,7.38
2022-12-11T16:40:45.988Z,7.43
2022-12-11T16:43:14.650Z,8.45
2022-12-11T16:45:43.752Z,11.13
2022-12-11T16:48:12.348Z,5.22
2022-12-11T16:50:40.980Z,28.75
2022-12-11T16:53:09.382Z,9.38
2022-12-11T16:55:40.134Z,10.65
2022-12-11T16:58:08.752Z,11.00
2022-12-11T17:00:37.513Z,11.27
2022-12-11T17:03:06.668Z,11.10
2022-12-11T17:05:35.006Z,7.15
2022-12-11T17:08:03.644Z,8.57
2022-12-11T17:10:32.023Z,4.70
2022-12-11T17:13:00.770Z,5.63
2022-12-11T17:15:29.223Z,6.75
2022-12-11T17:17:57.689Z,5.30
2022-12-11T17:20:26.030Z,8.15
2022-12-11T17:28:30.717Z,17.40
2022-12-11T17:36:24.630Z,6.65
2022-12-11T17:38:53.262Z,4.47
2022-12-11T17:41:24.913Z,7.22
2022-12-11T17:43:58.035Z,7.88
2022-12-11T17:46:27.078Z,10.80
2022-12-11T17:48:56.823Z,11.70
2022-12-11T17:51:25.334Z,18.63
2022-12-11T17:53:58.835Z,14.07
2022-12-11T17:56:27.900Z,8.18
2022-12-11T18:01:24.950Z,14.70
2022-12-11T18:03:53.498Z,21.98
2022-12-11T18:06:23.500Z,70.13
2022-12-11T18:08:52.095Z,17.10
2022-12-11T18:11:23.824Z,10.40
2022-12-11T18:13:53.349Z,15.73
2022-12-11T18:16:26.932Z,36.45
2022-12-11T18:18:56.850Z,9.20
2022-12-11T18:21:29.660Z,19.17
2022-12-11T18:23:58.529Z,6.97
2022-12-11T18:26:27.350Z,9.70
2022-12-11T18:28:55.875Z,8.30
2022-12-11T18:31:25.034Z,8.60
2022-12-11T18:33:54.167Z,9.55
2022-12-11T18:36:22.739Z,8.15
2022-12-11T18:38:51.160Z,23.00
2022-12-11T18:41:20.385Z,23.33
2022-12-11T18:43:48.991Z,10.00
2022-12-11T18:46:19.520Z,15.85
2022-12-11T18:48:49.494Z,9.68
2022-12-11T18:51:22.952Z,14.30
2022-12-11T18:53:52.257Z,8.77
2022-12-11T18:58:52.357Z,8.30
2022-12-11T19:01:24.671Z,10.20
2022-12-11T19:04:03.251Z,13.88
2022-12-11T19:06:35.832Z,15.80
2022-12-11T19:09:06.608Z,7.07
2022-12-11T19:11:36.732Z,7.15
2022-12-11T19:14:06.334Z,7.65
2022-12-11T19:16:43.113Z,6.90
2022-12-11T19:22:07.343Z,6.18
2022-12-11T19:27:18.218Z,16.10
2022-12-11T19:29:46.664Z,9.32
2022-12-11T19:32:15.227Z,4.68
2022-12-11T19:34:44.125Z,8.40
2022-12-11T19:37:12.437Z,9.07
2022-12-11T19:39:41.444Z,7.10
2022-12-11T19:42:09.806Z,4.55
2022-12-11T19:44:38.596Z,4.93
2022-12-11T19:47:07.048Z,11.63
2022-12-11T19:49:35.279Z,8.77
2022-12-11T19:52:05.014Z,13.88
2022-12-11T19:54:33.476Z,12.25
2022-12-11T19:57:01.646Z,7.03
2022-12-11T19:59:29.728Z,9.30
2022-12-11T20:01:57.685Z,9.52
2022-12-11T20:04:26.069Z,9.30
2022-12-11T20:06:54.279Z,10.45
2022-12-11T20:09:22.204Z,8.13
2022-12-11T20:11:50.798Z,6.88
2022-12-11T20:14:22.788Z,11.02
2022-12-11T20:17:10.985Z,14.88
2022-12-11T20:19:41.501Z,6.68
2022-12-11T20:22:09.964Z,10.50
2022-12-11T20:24:38.676Z,5.85
2022-12-11T20:27:06.700Z,5.45
2022-12-11T20:29:35.029Z,8.27
2022-12-11T20:32:03.250Z,8.25
2022-12-11T20:34:31.612Z,9.93
2022-12-11T20:37:00.623Z,6.95
2022-12-11T20:39:29.327Z,7.63
2022-12-11T20:41:57.396Z,6.75
2022-12-11T20:44:25.541Z,7.88
2022-12-11T20:46:53.578Z,10.15
2022-12-11T20:49:21.687Z,11.05
2022-12-11T20:51:49.828Z,18.08
2022-12-11T20:54:17.859Z,11.75
2022-12-11T20:56:45.919Z,7.50
2022-12-11T20:59:14.171Z,14.23
2022-12-11T21:01:42.233Z,10.23
2022-12-11T21:04:11.061Z,10.13
2022-12-11T21:06:40.825Z,5.00
2022-12-11T21:09:13.216Z,11.07
2022-12-11T21:11:41.516Z,4.15
2022-12-11T21:14:10.102Z,6.70
2022-12-11T21:16:38.179Z,7.03
2022-12-11T21:19:07.013Z,12.50
2022-12-11T21:21:37.103Z,14.40
2022-12-11T21:34:58.551Z,7.25
2022-12-11T21:37:26.880Z,9.35
2022-12-11T21:39:57.894Z,7.95
2022-12-11T21:42:26.295Z,6.88
2022-12-11T21:47:42.830Z,5.53
2022-12-11T21:50:12.908Z,3.75
2022-12-11T21:52:41.194Z,6.70
2022-12-11T21:55:11.139Z,8.52
2022-12-11T21:57:39.430Z,8.05
2022-12-11T22:00:09.819Z,6.40
2022-12-11T22:02:41.410Z,8.13
2022-12-11T22:05:10.080Z,8.18
2022-12-11T22:07:38.255Z,9.70
2022-12-11T22:10:06.983Z,6.38
2022-12-11T22:12:34.872Z,5.05
2022-12-11T22:15:02.955Z,6.68
2022-12-11T22:17:31.864Z,5.28
2022-12-11T22:19:59.891Z,6.20
2022-12-11T22:22:27.913Z,8.27
2022-12-11T22:24:55.825Z,4.82
2022-12-11T22:27:24.164Z,5.78
2022-12-11T22:29:54.996Z,6.90
2022-12-11T22:32:22.910Z,5.78
2022-12-11T22:34:50.807Z,10.00
2022-12-11T22:37:18.892Z,7.07
2022-12-11T22:39:46.889Z,6.05
2022-12-11T22:42:14.798Z,6.45
2022-12-11T22:44:43.092Z,5.32
2022-12-11T22:47:11.583Z,5.85
2022-12-11T22:49:39.575Z,4.47
2022-12-11T22:52:07.489Z,4.30
2022-12-11T22:54:39.172Z,5.00
2022-12-11T22:57:07.437Z,6.60
2022-12-11T22:59:36.309Z,8.98
2022-12-11T23:02:04.373Z,7.43
2022-12-11T23:04:32.438Z,5.90
2022-12-11T23:07:00.427Z,5.90
2022-12-11T23:09:28.267Z,6.13
2022-12-11T23:11:58.582Z,6.68
2022-12-11T23:14:26.735Z,6.10
2022-12-11T23:16:54.828Z,5.65
2022-12-11T23:19:25.587Z,5.88
2022-12-11T23:21:54.150Z,5.22
2022-12-11T23:29:18.355Z,5.90
2022-12-11T23:31:46.561Z,8.20
2022-12-11T23:34:14.427Z,5.68
2022-12-11T23:36:42.475Z,6.90
2022-12-11T23:39:10.403Z,9.60
2022-12-11T23:41:38.570Z,3.00
2022-12-11T23:44:06.394Z,6.13
2022-12-11T23:46:34.671Z,5.20
2022-12-11T23:49:02.872Z,5.82
2022-12-11T23:51:31.239Z,5.93
2022-12-11T23:53:59.145Z,9.27
2022-12-11T23:56:29.147Z,6.82
2022-12-11T23:58:57.716Z,5.70
